createdAt,value
2022-08-08T00:00:52.189Z,102023.25
2022-08-08T00:03:31.520Z,102020.22
2022-08-08T00:06:28.322Z,102018.13
2022-08-08T00:09:34.725Z,102013.38
2022-08-08T00:12:10.658Z,102010.66
2022-08-08T00:14:57.117Z,102012.91
2022-08-08T00:18:12.307Z,102011.38
2022-08-08T00:20:59.112Z,102011.94
2022-08-08T00:23:42.462Z,102007.31
2022-08-08T00:26:43.545Z,102017.34
2022-08-08T00:29:45.283Z,102015.63
2022-08-08T00:32:34.892Z,102007.66
2022-08-08T00:35:41.344Z,102003.97
2022-08-08T00:38:16.981Z,102011.25
2022-08-08T00:41:55.592Z,102006.88
2022-08-08T00:44:44.218Z,102015.47
2022-08-08T00:48:02.097Z,102011.75
2022-08-08T00:50:55.417Z,102015.72
2022-08-08T00:54:04.281Z,102015.47
2022-08-08T00:56:52.021Z,102013.22
2022-08-08T01:00:06.372Z,102008.97
2022-08-08T01:03:59.157Z,102010.66
2022-08-08T01:06:16.357Z,102005.56
2022-08-08T01:09:35.034Z,101999.97
2022-08-08T01:12:43.148Z,102006.13
2022-08-08T01:15:54.357Z,102005.94
2022-08-08T01:18:52.834Z,102010.22
2022-08-08T01:22:13.084Z,102019.16
2022-08-08T01:25:43.910Z,102010.38
2022-08-08T01:28:36.889Z,102013.28
2022-08-08T01:32:14.723Z,102011.59
2022-08-08T01:35:29.686Z,102007.69
2022-08-08T01:38:51.115Z,102012.44
2022-08-08T01:41:34.481Z,102008.66
2022-08-08T01:44:53.533Z,102014.41
2022-08-08T01:48:13.887Z,102011.72
2022-08-08T01:51:17.156Z,102020.13
2022-08-08T01:55:44.891Z,102018.44
2022-08-08T01:58:10.959Z,102014.34
2022-08-08T02:01:03.527Z,102018.44
2022-08-08T02:03:54.903Z,102015.03
2022-08-08T02:07:05.630Z,102011.97
2022-08-08T02:10:01.949Z,102019.75
2022-08-08T02:12:31.183Z,102019.81
2022-08-08T02:15:11.107Z,102023.94
2022-08-08T02:18:43.343Z,102028.47
2022-08-08T02:21:49.126Z,102029.78
2022-08-08T02:24:32.175Z,102027.72
2022-08-08T02:27:16.986Z,102025.03
2022-08-08T02:30:20.931Z,102027.06
2022-08-08T02:33:41.373Z,102027.41
2022-08-08T02:36:45.126Z,102022.63
2022-08-08T02:39:42.653Z,102024.34
2022-08-08T02:42:41.554Z,102021.78
2022-08-08T02:45:54.030Z,102028.78
2022-08-08T02:48:42.633Z,102020.59
2022-08-08T02:51:46.563Z,102024.69
2022-08-08T02:54:30.158Z,102026.75
2022-08-08T02:57:51.316Z,102019.41
2022-08-08T03:00:51.030Z,102031.75
2022-08-08T03:05:04.670Z,102020.25
2022-08-08T03:07:07.218Z,102021.63
2022-08-08T03:10:31.446Z,102022.94
2022-08-08T03:13:33.939Z,102026.34
2022-08-08T03:16:37.308Z,102027.19
2022-08-08T03:19:51.103Z,102028.69
2022-08-08T03:22:38.853Z,102036.25
2022-08-08T03:25:14.424Z,102032.00
2022-08-08T03:27:56.303Z,102035.56
2022-08-08T03:30:29.537Z,102031.13
2022-08-08T03:33:54.827Z,102029.94
2022-08-08T03:36:10.414Z,102036.59
2022-08-08T03:38:57.604Z,102034.00
2022-08-08T03:42:26.667Z,102031.94
2022-08-08T03:44:25.557Z,102033.28
2022-08-08T03:46:53.235Z,102037.75
2022-08-08T03:49:57.465Z,102036.72
2022-08-08T03:52:13.250Z,102032.69
2022-08-08T03:55:02.035Z,102038.16
2022-08-08T03:58:30.675Z,102039.34
2022-08-08T04:00:26.263Z,102043.94
2022-08-08T04:03:11.773Z,102045.31
2022-08-08T04:05:47.922Z,102042.94
2022-08-08T04:08:32.995Z,102047.38
2022-08-08T04:11:11.056Z,102047.03
2022-08-08T04:14:04.014Z,102055.75
2022-08-08T04:16:38.542Z,102056.94
2022-08-08T04:19:23.317Z,102048.06
2022-08-08T04:21:54.353Z,102048.41
2022-08-08T04:24:29.298Z,102054.22
2022-08-08T04:26:59.652Z,102054.38
2022-08-08T04:29:36.644Z,102051.25
2022-08-08T04:32:06.899Z,102053.53
2022-08-08T04:34:49.259Z,102048.75
2022-08-08T04:37:21.186Z,102046.69
2022-08-08T04:40:06.621Z,102058.97
2022-08-08T04:42:56.038Z,102056.91
2022-08-08T04:45:27.019Z,102049.69
2022-08-08T04:48:00.465Z,102052.75
2022-08-08T04:50:38.476Z,102053.34
2022-08-08T04:53:13.898Z,102053.94
2022-08-08T04:55:56.243Z,102062.41
2022-08-08T04:58:25.811Z,102068.06
2022-08-08T05:00:52.821Z,102070.84
2022-08-08T05:04:08.260Z,102069.31
2022-08-08T05:06:13.308Z,102067.59
2022-08-08T05:08:51.859Z,102073.31
2022-08-08T05:11:22.499Z,102065.25
2022-08-08T05:13:58.008Z,102070.47
2022-08-08T05:16:54.854Z,102070.59
2022-08-08T05:20:09.884Z,102076.28
2022-08-08T05:22:11.199Z,102073.00
2022-08-08T05:24:38.894Z,102076.06
2022-08-08T05:27:07.693Z,102069.44
2022-08-08T05:29:35.917Z,102078.72
2022-08-08T05:32:07.277Z,102079.28
2022-08-08T05:34:46.615Z,102083.16
2022-08-08T05:37:39.455Z,102085.72
2022-08-08T05:40:14.642Z,102085.59
2022-08-08T05:42:51.797Z,102087.28
2022-08-08T05:45:25.514Z,102089.97
2022-08-08T05:48:08.160Z,102093.25
2022-08-08T05:50:39.900Z,102090.78
2022-08-08T05:53:53.839Z,102091.19
2022-08-08T05:56:10.244Z,102083.47
2022-08-08T05:58:56.884Z,102083.31
2022-08-08T06:01:56.547Z,102099.13
2022-08-08T06:04:29.424Z,102101.81
2022-08-08T06:07:03.930Z,102107.44
2022-08-08T06:09:57.992Z,102101.22
2022-08-08T06:12:29.612Z,102099.72
2022-08-08T06:15:06.115Z,102096.72
2022-08-08T06:18:18.296Z,102094.38
2022-08-08T06:20:27.130Z,102102.06
2022-08-08T06:22:57.874Z,102102.53
2022-08-08T06:25:33.431Z,102106.34
2022-08-08T06:28:54.036Z,102109.72
2022-08-08T06:31:32.221Z,102116.03
2022-08-08T06:34:26.965Z,102120.03
2022-08-08T06:37:00.174Z,102117.81
2022-08-08T06:39:33.276Z,102125.13
2022-08-08T06:42:02.948Z,102130.56
2022-08-08T06:44:30.436Z,102132.38
2022-08-08T06:46:58.959Z,102132.69
2022-08-08T06:49:55.031Z,102134.31
2022-08-08T06:52:16.051Z,102126.94
2022-08-08T06:54:44.706Z,102141.34
2022-08-08T06:57:16.154Z,102140.16
2022-08-08T07:00:10.255Z,102141.50
2022-08-08T07:02:34.166Z,102139.75
2022-08-08T07:05:06.873Z,102138.50
2022-08-08T07:07:52.286Z,102135.56
2022-08-08T07:10:27.209Z,102133.44
2022-08-08T07:13:06.886Z,102131.31
2022-08-08T07:16:04.290Z,102134.13
2022-08-08T07:19:09.761Z,102143.69
2022-08-08T07:22:05.452Z,102134.31
2022-08-08T07:25:02.373Z,102133.22
2022-08-08T07:27:55.722Z,102130.41
2022-08-08T07:30:32.341Z,102134.56
2022-08-08T07:33:11.686Z,102133.63
2022-08-08T07:35:47.288Z,102132.00
2022-08-08T07:38:25.528Z,102137.16
2022-08-08T07:41:04.524Z,102142.72
2022-08-08T07:43:37.509Z,102142.44
2022-08-08T07:46:24.148Z,102149.47
2022-08-08T07:48:56.750Z,102144.00
2022-08-08T07:51:45.549Z,102149.22
2022-08-08T07:54:29.407Z,102148.38
2022-08-08T07:57:09.132Z,102159.38
2022-08-08T07:59:52.909Z,102167.84
2022-08-08T08:02:41.723Z,102164.41
2022-08-08T08:05:33.568Z,102163.34
2022-08-08T08:08:21.652Z,102159.94
2022-08-08T08:10:56.840Z,102169.16
2022-08-08T08:14:07.563Z,102160.06
2022-08-08T08:16:41.144Z,102163.16
2022-08-08T08:19:14.991Z,102157.53
2022-08-08T08:21:57.346Z,102168.88
2022-08-08T08:24:32.436Z,102155.28
2022-08-08T08:27:02.571Z,102166.41
2022-08-08T08:29:33.135Z,102165.09
2022-08-08T08:32:05.453Z,102167.53
2022-08-08T08:34:37.229Z,102166.56
2022-08-08T08:37:15.519Z,102166.44
2022-08-08T08:40:02.003Z,102164.16
2022-08-08T08:42:36.160Z,102167.91
2022-08-08T08:45:21.004Z,102166.19
2022-08-08T08:47:52.993Z,102174.66
2022-08-08T08:50:32.793Z,102170.91
2022-08-08T08:53:27.666Z,102169.09
2022-08-08T08:56:01.219Z,102172.59
2022-08-08T08:58:35.476Z,102170.66
2022-08-08T09:01:10.418Z,102177.78
2022-08-08T09:03:50.642Z,102177.53
2022-08-08T09:06:33.476Z,102180.63
2022-08-08T09:09:35.268Z,102180.81
2022-08-08T09:12:10.410Z,102178.16
2022-08-08T09:14:42.410Z,102172.72
2022-08-08T09:17:17.443Z,102176.34
2022-08-08T09:21:57.303Z,102175.09
2022-08-08T09:22:40.140Z,102170.97
2022-08-08T09:25:09.702Z,102164.81
2022-08-08T09:27:55.769Z,102166.63
2022-08-08T09:30:29.641Z,102163.31
2022-08-08T09:33:54.656Z,102168.00
2022-08-08T09:35:49.596Z,102164.56
2022-08-08T09:38:53.006Z,102162.47
2022-08-08T09:42:15.234Z,102166.75
2022-08-08T09:44:40.714Z,102161.25
2022-08-08T09:47:26.700Z,102165.00
2022-08-08T09:50:04.799Z,102156.81
2022-08-08T09:52:58.441Z,102168.94
2022-08-08T09:55:31.208Z,102168.25
2022-08-08T09:58:27.736Z,102160.19
2022-08-08T10:01:14.200Z,102156.50
2022-08-08T10:03:56.075Z,102163.88
2022-08-08T10:06:29.201Z,102157.06
2022-08-08T10:08:56.742Z,102164.88
2022-08-08T10:12:26.313Z,102159.44
2022-08-08T10:14:34.831Z,102166.13
2022-08-08T10:17:57.458Z,102152.22
2022-08-08T10:20:01.789Z,102156.53
2022-08-08T10:22:34.295Z,102156.47
2022-08-08T10:25:07.306Z,102152.78
2022-08-08T10:27:50.564Z,102154.47
2022-08-08T10:30:59.717Z,102147.44
2022-08-08T10:33:12.356Z,102156.75
2022-08-08T10:36:09.783Z,102147.50
2022-08-08T10:38:35.696Z,102147.81
2022-08-08T10:41:17.452Z,102141.38
2022-08-08T10:43:51.665Z,102148.59
2022-08-08T10:46:30.197Z,102143.84
2022-08-08T10:48:59.431Z,102145.78
2022-08-08T10:51:31.529Z,102146.72
2022-08-08T10:54:07.660Z,102140.44
2022-08-08T10:56:36.108Z,102143.84
2022-08-08T10:59:10.217Z,102146.97
2022-08-08T11:01:54.472Z,102144.16
2022-08-08T11:04:29.826Z,102148.66
2022-08-08T11:07:01.025Z,102145.25
2022-08-08T11:09:32.136Z,102137.97
2022-08-08T11:12:04.906Z,102138.50
2022-08-08T11:14:51.364Z,102132.84
2022-08-08T11:17:58.108Z,102134.00
2022-08-08T11:20:27.592Z,102131.72
2022-08-08T11:23:05.711Z,102127.75
2022-08-08T11:25:52.874Z,102128.41
2022-08-08T11:28:29.637Z,102131.22
2022-08-08T11:31:08.665Z,102127.84
2022-08-08T11:33:53.117Z,102130.66
2022-08-08T11:36:29.395Z,102129.28
2022-08-08T11:38:57.516Z,102142.22
2022-08-08T11:41:33.846Z,102133.44
2022-08-08T11:44:05.396Z,102133.97
2022-08-08T11:46:36.882Z,102134.63
2022-08-08T11:49:11.375Z,102138.59
2022-08-08T11:51:49.877Z,102132.69
2022-08-08T11:54:27.202Z,102132.16
2022-08-08T11:57:27.552Z,102127.88
2022-08-08T12:00:02.901Z,102131.78
2022-08-08T12:02:48.924Z,102131.50
2022-08-08T12:05:18.464Z,102129.22
2022-08-08T12:07:53.675Z,102131.25
2022-08-08T12:10:31.884Z,102139.97
2022-08-08T12:13:09.734Z,102132.06
2022-08-08T12:15:49.138Z,102125.06
2022-08-08T12:18:25.828Z,102138.50
2022-08-08T12:20:56.645Z,102137.53
2022-08-08T12:23:42.826Z,102142.31
2022-08-08T12:26:35.803Z,102136.69
2022-08-08T12:29:25.804Z,102144.00
2022-08-08T12:32:20.238Z,102136.97
2022-08-08T12:35:04.777Z,102139.03
2022-08-08T12:37:48.140Z,102146.75
2022-08-08T12:40:54.190Z,102139.22
2022-08-08T12:43:46.369Z,102139.28
2022-08-08T12:46:26.820Z,102138.84
2022-08-08T12:51:58.906Z,102135.44
2022-08-08T12:54:40.912Z,102139.28
2022-08-08T12:57:26.105Z,102133.66
2022-08-08T13:00:04.171Z,102130.28
2022-08-08T13:02:37.951Z,102131.19
2022-08-08T13:05:26.351Z,102137.63
2022-08-08T13:08:21.903Z,102134.91
2022-08-08T13:10:58.474Z,102131.53
2022-08-08T13:13:35.522Z,102134.59
2022-08-08T13:16:21.204Z,102128.78
2022-08-08T13:18:57.619Z,102134.59
2022-08-08T13:21:49.234Z,102118.44
2022-08-08T13:24:18.751Z,102120.38
2022-08-08T13:27:13.079Z,102117.47
2022-08-08T13:29:58.772Z,102118.63
2022-08-08T13:32:37.234Z,102120.06
2022-08-08T13:35:25.164Z,102119.72
2022-08-08T13:38:08.125Z,102122.94
2022-08-08T13:40:44.946Z,102112.56
2022-08-08T13:43:16.132Z,102117.63
2022-08-08T13:45:47.431Z,102117.66
2022-08-08T13:48:19.654Z,102109.13
2022-08-08T13:50:56.890Z,102114.50
2022-08-08T13:53:36.393Z,102112.25
2022-08-08T13:56:11.310Z,102120.28
2022-08-08T13:58:57.904Z,102118.25
2022-08-08T14:01:41.779Z,102113.13
2022-08-08T14:04:25.118Z,102112.25
2022-08-08T14:07:04.476Z,102109.06
2022-08-08T14:10:04.734Z,102111.63
2022-08-08T14:12:21.364Z,102119.78
2022-08-08T14:14:48.243Z,102122.16
2022-08-08T14:17:22.172Z,102116.97
2022-08-08T14:19:57.128Z,102123.13
2022-08-08T14:22:42.206Z,102115.53
2022-08-08T14:25:15.264Z,102119.81
2022-08-08T14:28:00.229Z,102114.72
2022-08-08T14:30:35.781Z,102119.72
2022-08-08T14:33:11.198Z,102112.13
2022-08-08T14:35:43.227Z,102124.16
2022-08-08T14:38:34.177Z,102120.75
2022-08-08T14:41:48.767Z,102119.91
2022-08-08T14:44:13.289Z,102121.59
2022-08-08T14:47:00.147Z,102124.59
2022-08-08T14:49:37.895Z,102131.50
2022-08-08T14:52:26.731Z,102123.81
2022-08-08T14:54:58.879Z,102115.81
2022-08-08T14:58:06.067Z,102114.69
2022-08-08T15:00:15.445Z,102112.03
2022-08-08T15:02:59.123Z,102110.16
2022-08-08T15:05:54.407Z,102105.09
2022-08-08T15:08:35.484Z,102101.50
2022-08-08T15:11:09.376Z,102106.63
2022-08-08T15:14:01.344Z,102102.22
2022-08-08T15:16:28.813Z,102105.78
2022-08-08T15:18:55.981Z,102102.91
2022-08-08T15:21:22.857Z,102104.78
2022-08-08T15:23:59.466Z,102092.25
2022-08-08T15:26:28.933Z,102102.88
2022-08-08T15:28:57.151Z,102106.75
2022-08-08T15:32:03.661Z,102108.88
2022-08-08T15:34:31.899Z,102117.63
2022-08-08T15:37:05.014Z,102103.50
2022-08-08T15:39:38.244Z,102103.69
2022-08-08T15:42:10.323Z,102102.22
2022-08-08T15:44:38.543Z,102104.13
2022-08-08T15:47:07.329Z,102106.22
2022-08-08T15:49:44.695Z,102102.00
2022-08-08T15:52:20.507Z,102102.97
2022-08-08T15:54:55.710Z,102106.28
2022-08-08T15:57:25.245Z,102103.41
2022-08-08T16:00:05.749Z,102102.38
2022-08-08T16:02:50.271Z,102102.13
2022-08-08T16:05:20.528Z,102107.59
2022-08-08T16:07:51.192Z,102106.28
2022-08-08T16:13:03.455Z,102107.06
2022-08-08T16:13:30.932Z,102110.28
2022-08-08T16:16:09.495Z,102097.69
2022-08-08T16:18:53.300Z,102100.03
2022-08-08T16:21:31.621Z,102105.97
2022-08-08T16:24:04.892Z,102100.97
2022-08-08T16:26:36.403Z,102102.41
2022-08-08T16:29:18.744Z,102104.44
2022-08-08T16:31:50.838Z,102102.31
2022-08-08T16:34:21.106Z,102091.59
2022-08-08T16:36:51.729Z,102095.06
2022-08-08T16:39:27.856Z,102093.84
2022-08-08T16:42:18.516Z,102099.94
2022-08-08T16:44:47.534Z,102094.94
2022-08-08T16:47:39.825Z,102100.50
2022-08-08T16:50:15.752Z,102100.66
2022-08-08T16:55:05.349Z,102102.13
2022-08-08T16:55:52.441Z,102101.84
2022-08-08T16:58:25.821Z,102103.16
2022-08-08T17:00:58.812Z,102112.97
2022-08-08T17:03:58.592Z,102116.09
2022-08-08T17:06:41.792Z,102118.22
2022-08-08T17:09:14.970Z,102125.63
2022-08-08T17:11:49.151Z,102118.25
2022-08-08T17:14:27.405Z,102119.72
2022-08-08T17:16:58.637Z,102129.66
2022-08-08T17:19:30.478Z,102128.91
2022-08-08T17:22:06.098Z,102131.53
2022-08-08T17:24:33.833Z,102130.44
2022-08-08T17:27:02.941Z,102143.94
2022-08-08T17:29:43.902Z,102134.25
2022-08-08T17:32:34.161Z,102137.25
2022-08-08T17:35:53.664Z,102140.78
2022-08-08T17:38:00.264Z,102146.19
2022-08-08T17:40:32.767Z,102152.31
2022-08-08T17:42:59.722Z,102152.53
2022-08-08T17:45:26.852Z,102150.09
2022-08-08T17:47:59.842Z,102148.41
2022-08-08T17:50:27.084Z,102151.56
2022-08-08T17:52:57.685Z,102145.75
2022-08-08T17:56:07.011Z,102155.50
2022-08-08T17:58:15.796Z,102151.72
2022-08-08T18:00:42.705Z,102155.13
2022-08-08T18:03:25.383Z,102159.22
2022-08-08T18:05:52.413Z,102158.75
2022-08-08T18:08:24.988Z,102159.59
2022-08-08T18:11:11.771Z,102155.53
2022-08-08T18:13:44.393Z,102151.00
2022-08-08T18:16:20.644Z,102157.72
2022-08-08T18:18:53.424Z,102166.13
2022-08-08T18:21:35.650Z,102157.97
2022-08-08T18:24:21.131Z,102160.19
2022-08-08T18:26:55.871Z,102153.25
2022-08-08T18:29:34.059Z,102161.63
2022-08-08T18:32:10.458Z,102165.56
2022-08-08T18:34:44.392Z,102169.59
2022-08-08T18:37:17.870Z,102172.53
2022-08-08T18:40:07.952Z,102175.25
2022-08-08T18:42:45.594Z,102181.94
2022-08-08T18:46:00.530Z,102191.56
2022-08-08T18:48:07.723Z,102192.63
2022-08-08T18:50:39.501Z,102185.47
2022-08-08T18:53:09.163Z,102192.94
2022-08-08T18:55:43.897Z,102192.78
2022-08-08T18:58:11.025Z,102199.16
2022-08-08T19:00:37.998Z,102204.13
2022-08-08T19:03:09.664Z,102205.66
2022-08-08T19:05:44.211Z,102209.47
2022-08-08T19:08:28.504Z,102207.34
2022-08-08T19:11:02.510Z,102208.16
2022-08-08T19:13:53.891Z,102221.03
2022-08-08T19:16:28.422Z,102219.69
2022-08-08T19:19:02.977Z,102223.66
2022-08-08T19:21:49.219Z,102217.03
2022-08-08T19:24:34.115Z,102217.56
2022-08-08T19:27:05.850Z,102218.69
2022-08-08T19:29:42.325Z,102222.53
2022-08-08T19:32:19.627Z,102231.03
2022-08-08T19:34:51.484Z,102228.91
2022-08-08T19:37:19.192Z,102234.06
2022-08-08T19:40:14.620Z,102231.09
2022-08-08T19:42:44.158Z,102234.94
2022-08-08T19:45:14.146Z,102238.53
2022-08-08T19:48:01.574Z,102236.69
2022-08-08T19:50:29.057Z,102237.13
2022-08-08T19:53:00.289Z,102232.22
2022-08-08T19:55:27.277Z,102233.25
2022-08-08T19:58:04.119Z,102232.00
2022-08-08T20:00:35.366Z,102231.38
2022-08-08T20:03:14.806Z,102237.59
2022-08-08T20:06:15.521Z,102236.56
2022-08-08T20:08:48.054Z,102235.94
2022-08-08T20:11:15.763Z,102242.75
2022-08-08T20:14:12.340Z,102242.97
2022-08-08T20:16:30.266Z,102247.22
2022-08-08T20:18:57.483Z,102244.69
2022-08-08T20:21:26.033Z,102246.19
2022-08-08T20:23:57.579Z,102252.38
2022-08-08T20:26:33.342Z,102250.25
2022-08-08T20:29:04.152Z,102260.88
2022-08-08T20:31:47.058Z,102261.53
2022-08-08T20:34:30.008Z,102264.06
2022-08-08T20:37:04.642Z,102267.91
2022-08-08T20:39:41.323Z,102269.19
2022-08-08T20:42:28.541Z,102263.66
2022-08-08T20:44:57.326Z,102273.44
2022-08-08T20:47:25.548Z,102266.63
2022-08-08T20:49:54.092Z,102270.84
2022-08-08T20:52:23.386Z,102261.44
2022-08-08T20:54:50.379Z,102268.72
2022-08-08T20:57:19.024Z,102265.75
2022-08-08T20:59:50.442Z,102262.06
2022-08-08T21:02:27.004Z,102261.63
2022-08-08T21:05:00.378Z,102259.50
2022-08-08T21:07:31.314Z,102268.41
2022-08-08T21:10:17.215Z,102263.44
2022-08-08T21:12:46.214Z,102259.56
2022-08-08T21:15:16.493Z,102262.00
2022-08-08T21:18:02.944Z,102270.56
2022-08-08T21:20:34.497Z,102265.81
2022-08-08T21:23:02.965Z,102268.78
2022-08-08T21:25:36.288Z,102274.50
2022-08-08T21:28:09.464Z,102269.81
2022-08-08T21:30:51.898Z,102261.13
2022-08-08T21:33:20.537Z,102268.75
2022-08-08T21:36:16.630Z,102262.50
2022-08-08T21:38:37.381Z,102258.84
2022-08-08T21:41:04.328Z,102263.19
2022-08-08T21:43:34.192Z,102265.28
2022-08-08T21:48:06.768Z,102262.91
2022-08-08T21:49:03.369Z,102270.06
2022-08-08T21:54:16.922Z,102277.06
2022-08-08T21:54:52.215Z,102275.38
2022-08-08T21:57:09.630Z,102268.25
2022-08-08T22:00:03.070Z,102275.78
2022-08-08T22:02:28.950Z,102283.09
2022-08-08T22:04:58.838Z,102274.63
2022-08-08T22:07:34.688Z,102282.03
2022-08-08T22:10:18.250Z,102273.00
2022-08-08T22:13:16.908Z,102273.88
2022-08-08T22:15:44.073Z,102277.72
2022-08-08T22:18:33.038Z,102284.03
2022-08-08T22:21:14.632Z,102287.81
2022-08-08T22:23:51.848Z,102285.06
2022-08-08T22:26:27.013Z,102290.66
2022-08-08T22:29:04.626Z,102292.38
2022-08-08T22:31:58.809Z,102299.69
2022-08-08T22:34:39.470Z,102297.34
2022-08-08T22:37:49.207Z,102300.34
2022-08-08T22:40:02.350Z,102300.09
2022-08-08T22:42:34.587Z,102307.88
2022-08-08T22:45:12.433Z,102304.97
2022-08-08T22:47:49.146Z,102311.63
2022-08-08T22:50:27.033Z,102305.63
2022-08-08T22:54:30.676Z,102304.13
2022-08-08T22:55:59.826Z,102302.56
2022-08-08T22:58:35.373Z,102303.34
2022-08-08T23:01:26.555Z,102299.09
2022-08-08T23:04:00.423Z,102307.19
2022-08-08T23:06:29.904Z,102315.34
2022-08-08T23:09:00.643Z,102313.16
2022-08-08T23:12:29.129Z,102315.81
2022-08-08T23:14:25.658Z,102315.34
2022-08-08T23:16:59.111Z,102317.81
2022-08-08T23:19:30.772Z,102318.19
2022-08-08T23:22:05.158Z,102321.22
2022-08-08T23:24:41.629Z,102317.81
2022-08-08T23:27:10.974Z,102328.44
2022-08-08T23:29:49.360Z,102326.63
2022-08-08T23:32:22.948Z,102325.97
2022-08-08T23:34:59.233Z,102329.47
2022-08-08T23:38:00.816Z,102325.22
2022-08-08T23:40:15.590Z,102339.34
2022-08-08T23:42:45.328Z,102337.53
2022-08-08T23:45:13.446Z,102332.88
2022-08-08T23:49:01.956Z,102336.19
2022-08-08T23:50:30.699Z,102330.13
2022-08-08T23:53:03.619Z,102337.91
2022-08-08T23:55:42.055Z,102325.91
2022-08-08T23:58:09.610Z,102330.72
